sensor_id;sensor_type;location;lat;lon;timestamp;P1;durP1;ratioP1;P2;durP2;ratioP2
78893;SDS011;68282;42.698;23.350;2023-06-26T00:01:30;18.75;;;14.02;;
78893;SDS011;68282;42.698;23.350;2023-06-26T00:03:59;19.30;;;13.20;;
78893;SDS011;68282;42.698;23.350;2023-06-26T00:06:26;23.30;;;12.98;;
78893;SDS011;68282;42.698;23.350;2023-06-26T00:08:52;17.25;;;11.98;;
78893;SDS011;68282;42.698;23.350;2023-06-26T00:11:21;20.85;;;12.68;;
78893;SDS011;68282;42.698;23.350;2023-06-26T00:13:47;16.33;;;12.30;;
78893;SDS011;68282;42.698;23.350;2023-06-26T00:16:13;20.73;;;13.70;;
78893;SDS011;68282;42.698;23.350;2023-06-26T00:18:38;21.10;;;12.45;;
78893;SDS011;68282;42.698;23.350;2023-06-26T00:21:03;18.83;;;11.85;;
78893;SDS011;68282;42.698;23.350;2023-06-26T00:23:29;16.88;;;12.45;;
78893;SDS011;68282;42.698;23.350;2023-06-26T00:25:56;17.08;;;11.65;;
78893;SDS011;68282;42.698;23.350;2023-06-26T00:28:21;22.08;;;13.00;;
78893;SDS011;68282;42.698;23.350;2023-06-26T00:30:47;18.42;;;11.25;;
78893;SDS011;68282;42.698;23.350;2023-06-26T00:33:12;19.42;;;11.50;;
78893;SDS011;68282;42.698;23.350;2023-06-26T00:35:38;18.88;;;10.90;;
78893;SDS011;68282;42.698;23.350;2023-06-26T00:38:03;18.88;;;10.80;;
78893;SDS011;68282;42.698;23.350;2023-06-26T00:40:28;16.75;;;12.02;;
78893;SDS011;68282;42.698;23.350;2023-06-26T00:42:54;20.75;;;11.65;;
78893;SDS011;68282;42.698;23.350;2023-06-26T00:45:20;15.43;;;11.50;;
78893;SDS011;68282;42.698;23.350;2023-06-26T00:47:45;14.45;;;10.63;;
78893;SDS011;68282;42.698;23.350;2023-06-26T00:50:11;15.88;;;10.77;;
78893;SDS011;68282;42.698;23.350;2023-06-26T00:52:38;16.70;;;11.20;;
78893;SDS011;68282;42.698;23.350;2023-06-26T00:55:03;14.23;;;10.63;;
78893;SDS011;68282;42.698;23.350;2023-06-26T00:57:30;15.82;;;11.07;;
78893;SDS011;68282;42.698;23.350;2023-06-26T00:59:55;15.32;;;10.95;;
78893;SDS011;68282;42.698;23.350;2023-06-26T01:02:21;15.70;;;11.10;;
78893;SDS011;68282;42.698;23.350;2023-06-26T01:04:47;14.52;;;11.18;;
78893;SDS011;68282;42.698;23.350;2023-06-26T01:07:17;14.32;;;10.18;;
78893;SDS011;68282;42.698;23.350;2023-06-26T01:09:46;22.35;;;11.52;;
78893;SDS011;68282;42.698;23.350;2023-06-26T01:12:12;17.13;;;11.35;;
78893;SDS011;68282;42.698;23.350;2023-06-26T01:14:38;12.35;;;9.63;;
78893;SDS011;68282;42.698;23.350;2023-06-26T01:17:04;14.90;;;10.48;;
78893;SDS011;68282;42.698;23.350;2023-06-26T01:19:31;16.48;;;10.48;;
78893;SDS011;68282;42.698;23.350;2023-06-26T01:25:09;14.15;;;9.43;;
78893;SDS011;68282;42.698;23.350;2023-06-26T01:27:44;13.35;;;9.20;;
78893;SDS011;68282;42.698;23.350;2023-06-26T01:30:11;13.07;;;9.15;;
78893;SDS011;68282;42.698;23.350;2023-06-26T01:32:37;16.10;;;10.43;;
78893;SDS011;68282;42.698;23.350;2023-06-26T01:35:05;12.15;;;9.25;;
78893;SDS011;68282;42.698;23.350;2023-06-26T01:37:32;12.82;;;9.50;;
78893;SDS011;68282;42.698;23.350;2023-06-26T01:39:57;12.93;;;9.07;;
78893;SDS011;68282;42.698;23.350;2023-06-26T01:42:23;13.48;;;9.57;;
78893;SDS011;68282;42.698;23.350;2023-06-26T01:44:48;13.23;;;9.52;;
78893;SDS011;68282;42.698;23.350;2023-06-26T01:47:16;12.35;;;9.30;;
78893;SDS011;68282;42.698;23.350;2023-06-26T01:49:47;13.82;;;9.98;;
78893;SDS011;68282;42.698;23.350;2023-06-26T01:55:03;15.23;;;10.27;;
78893;SDS011;68282;42.698;23.350;2023-06-26T01:57:36;12.45;;;9.38;;
78893;SDS011;68282;42.698;23.350;2023-06-26T02:00:04;14.05;;;9.75;;
78893;SDS011;68282;42.698;23.350;2023-06-26T02:02:31;15.77;;;9.50;;
78893;SDS011;68282;42.698;23.350;2023-06-26T02:04:56;14.00;;;10.18;;
78893;SDS011;68282;42.698;23.350;2023-06-26T02:07:22;14.15;;;9.57;;
78893;SDS011;68282;42.698;23.350;2023-06-26T02:09:47;13.52;;;9.43;;
78893;SDS011;68282;42.698;23.350;2023-06-26T02:12:13;13.95;;;10.40;;
78893;SDS011;68282;42.698;23.350;2023-06-26T02:14:38;17.50;;;10.48;;
78893;SDS011;68282;42.698;23.350;2023-06-26T02:17:04;14.82;;;10.40;;
78893;SDS011;68282;42.698;23.350;2023-06-26T02:19:29;14.48;;;10.30;;
78893;SDS011;68282;42.698;23.350;2023-06-26T02:21:55;14.95;;;10.38;;
78893;SDS011;68282;42.698;23.350;2023-06-26T02:24:20;13.68;;;9.90;;
78893;SDS011;68282;42.698;23.350;2023-06-26T02:26:46;14.25;;;10.20;;
78893;SDS011;68282;42.698;23.350;2023-06-26T02:29:11;13.77;;;10.00;;
78893;SDS011;68282;42.698;23.350;2023-06-26T02:31:37;16.52;;;10.23;;
78893;SDS011;68282;42.698;23.350;2023-06-26T02:34:03;14.57;;;10.57;;
78893;SDS011;68282;42.698;23.350;2023-06-26T02:36:29;14.68;;;9.52;;
78893;SDS011;68282;42.698;23.350;2023-06-26T02:38:54;15.20;;;10.73;;
78893;SDS011;68282;42.698;23.350;2023-06-26T02:41:20;17.02;;;11.68;;
78893;SDS011;68282;42.698;23.350;2023-06-26T02:43:45;18.30;;;12.07;;
78893;SDS011;68282;42.698;23.350;2023-06-26T02:46:11;15.73;;;12.25;;
78893;SDS011;68282;42.698;23.350;2023-06-26T02:48:36;16.00;;;11.55;;
78893;SDS011;68282;42.698;23.350;2023-06-26T02:51:01;16.08;;;10.85;;
78893;SDS011;68282;42.698;23.350;2023-06-26T02:53:27;18.35;;;12.23;;
78893;SDS011;68282;42.698;23.350;2023-06-26T02:55:52;15.38;;;11.27;;
78893;SDS011;68282;42.698;23.350;2023-06-26T02:58:18;20.15;;;13.18;;
78893;SDS011;68282;42.698;23.350;2023-06-26T03:00:43;17.77;;;13.68;;
78893;SDS011;68282;42.698;23.350;2023-06-26T03:03:09;22.58;;;14.18;;
78893;SDS011;68282;42.698;23.350;2023-06-26T03:05:34;17.92;;;12.43;;
78893;SDS011;68282;42.698;23.350;2023-06-26T03:08:00;17.33;;;11.88;;
78893;SDS011;68282;42.698;23.350;2023-06-26T03:10:25;20.42;;;13.95;;
78893;SDS011;68282;42.698;23.350;2023-06-26T03:12:51;19.23;;;14.00;;
78893;SDS011;68282;42.698;23.350;2023-06-26T03:15:16;19.60;;;14.52;;
78893;SDS011;68282;42.698;23.350;2023-06-26T03:17:41;19.52;;;14.43;;
78893;SDS011;68282;42.698;23.350;2023-06-26T03:20:07;19.08;;;13.07;;
78893;SDS011;68282;42.698;23.350;2023-06-26T03:22:33;18.85;;;14.35;;
78893;SDS011;68282;42.698;23.350;2023-06-26T03:24:58;18.13;;;13.57;;
78893;SDS011;68282;42.698;23.350;2023-06-26T03:27:24;18.25;;;12.80;;
78893;SDS011;68282;42.698;23.350;2023-06-26T03:29:51;17.40;;;13.50;;
78893;SDS011;68282;42.698;23.350;2023-06-26T03:32:17;20.80;;;13.43;;
78893;SDS011;68282;42.698;23.350;2023-06-26T03:34:43;17.95;;;13.90;;
78893;SDS011;68282;42.698;23.350;2023-06-26T03:37:08;18.00;;;13.48;;
78893;SDS011;68282;42.698;23.350;2023-06-26T03:39:34;20.77;;;14.25;;
78893;SDS011;68282;42.698;23.350;2023-06-26T03:41:59;22.10;;;14.90;;
78893;SDS011;68282;42.698;23.350;2023-06-26T03:44:26;19.20;;;13.88;;
78893;SDS011;68282;42.698;23.350;2023-06-26T03:46:52;18.55;;;13.82;;
78893;SDS011;68282;42.698;23.350;2023-06-26T03:49:17;20.60;;;13.77;;
78893;SDS011;68282;42.698;23.350;2023-06-26T03:51:43;20.40;;;14.57;;
78893;SDS011;68282;42.698;23.350;2023-06-26T03:54:08;18.95;;;14.05;;
78893;SDS011;68282;42.698;23.350;2023-06-26T03:56:34;17.85;;;14.00;;
78893;SDS011;68282;42.698;23.350;2023-06-26T03:58:59;20.05;;;13.82;;
78893;SDS011;68282;42.698;23.350;2023-06-26T04:01:25;22.70;;;14.93;;
78893;SDS011;68282;42.698;23.350;2023-06-26T04:03:50;19.42;;;14.23;;
78893;SDS011;68282;42.698;23.350;2023-06-26T04:06:16;19.48;;;14.07;;
78893;SDS011;68282;42.698;23.350;2023-06-26T04:08:41;16.08;;;12.63;;
78893;SDS011;68282;42.698;23.350;2023-06-26T04:11:07;22.58;;;14.75;;
78893;SDS011;68282;42.698;23.350;2023-06-26T04:13:32;20.45;;;14.88;;
78893;SDS011;68282;42.698;23.350;2023-06-26T04:15:57;18.42;;;13.75;;
78893;SDS011;68282;42.698;23.350;2023-06-26T04:18:23;21.70;;;14.43;;
78893;SDS011;68282;42.698;23.350;2023-06-26T04:23:34;20.25;;;14.50;;
78893;SDS011;68282;42.698;23.350;2023-06-26T04:26:00;19.63;;;13.30;;
78893;SDS011;68282;42.698;23.350;2023-06-26T04:28:25;19.08;;;13.80;;
78893;SDS011;68282;42.698;23.350;2023-06-26T04:30:51;19.52;;;14.35;;
78893;SDS011;68282;42.698;23.350;2023-06-26T04:33:16;19.77;;;13.73;;
78893;SDS011;68282;42.698;23.350;2023-06-26T04:35:42;20.08;;;14.52;;
78893;SDS011;68282;42.698;23.350;2023-06-26T04:38:09;19.65;;;13.20;;
78893;SDS011;68282;42.698;23.350;2023-06-26T04:40:35;19.17;;;12.90;;
78893;SDS011;68282;42.698;23.350;2023-06-26T04:43:00;21.20;;;13.70;;
78893;SDS011;68282;42.698;23.350;2023-06-26T04:45:26;19.27;;;14.52;;
78893;SDS011;68282;42.698;23.350;2023-06-26T04:47:51;19.35;;;13.65;;
78893;SDS011;68282;42.698;23.350;2023-06-26T04:50:16;18.38;;;14.05;;
78893;SDS011;68282;42.698;23.350;2023-06-26T04:52:44;20.88;;;13.90;;
78893;SDS011;68282;42.698;23.350;2023-06-26T04:55:09;18.85;;;13.30;;
78893;SDS011;68282;42.698;23.350;2023-06-26T04:57:34;19.60;;;13.93;;
78893;SDS011;68282;42.698;23.350;2023-06-26T05:00:00;19.65;;;13.60;;
78893;SDS011;68282;42.698;23.350;2023-06-26T05:02:25;18.05;;;13.32;;
78893;SDS011;68282;42.698;23.350;2023-06-26T05:04:51;19.23;;;13.82;;
78893;SDS011;68282;42.698;23.350;2023-06-26T05:07:17;19.95;;;14.20;;
78893;SDS011;68282;42.698;23.350;2023-06-26T05:09:42;19.90;;;13.82;;
78893;SDS011;68282;42.698;23.350;2023-06-26T05:12:08;21.02;;;15.23;;
78893;SDS011;68282;42.698;23.350;2023-06-26T05:14:33;23.17;;;14.45;;
78893;SDS011;68282;42.698;23.350;2023-06-26T05:16:59;18.95;;;13.70;;
78893;SDS011;68282;42.698;23.350;2023-06-26T05:19:24;20.20;;;13.02;;
78893;SDS011;68282;42.698;23.350;2023-06-26T05:21:49;16.83;;;12.50;;
78893;SDS011;68282;42.698;23.350;2023-06-26T05:24:16;19.42;;;13.00;;
78893;SDS011;68282;42.698;23.350;2023-06-26T05:26:42;19.33;;;12.93;;
78893;SDS011;68282;42.698;23.350;2023-06-26T05:29:07;16.98;;;11.82;;
78893;SDS011;68282;42.698;23.350;2023-06-26T05:31:33;19.95;;;13.20;;
78893;SDS011;68282;42.698;23.350;2023-06-26T05:34:05;19.25;;;13.05;;
78893;SDS011;68282;42.698;23.350;2023-06-26T05:36:31;22.63;;;13.55;;
78893;SDS011;68282;42.698;23.350;2023-06-26T05:38:59;15.55;;;12.13;;
78893;SDS011;68282;42.698;23.350;2023-06-26T05:41:25;14.60;;;11.43;;
78893;SDS011;68282;42.698;23.350;2023-06-26T05:43:50;15.32;;;11.82;;
78893;SDS011;68282;42.698;23.350;2023-06-26T05:46:16;18.35;;;12.32;;
78893;SDS011;68282;42.698;23.350;2023-06-26T05:48:41;18.67;;;11.07;;
78893;SDS011;68282;42.698;23.350;2023-06-26T05:51:07;17.30;;;12.40;;
78893;SDS011;68282;42.698;23.350;2023-06-26T05:53:33;16.95;;;11.93;;
78893;SDS011;68282;42.698;23.350;2023-06-26T05:55:59;17.38;;;12.63;;
78893;SDS011;68282;42.698;23.350;2023-06-26T05:58:25;18.08;;;12.85;;
78893;SDS011;68282;42.698;23.350;2023-06-26T06:00:54;15.70;;;12.75;;
78893;SDS011;68282;42.698;23.350;2023-06-26T06:03:20;16.80;;;13.25;;
78893;SDS011;68282;42.698;23.350;2023-06-26T06:05:46;17.50;;;11.80;;
78893;SDS011;68282;42.698;23.350;2023-06-26T06:08:11;16.05;;;12.70;;
78893;SDS011;68282;42.698;23.350;2023-06-26T06:10:36;17.60;;;12.98;;
78893;SDS011;68282;42.698;23.350;2023-06-26T06:13:02;17.90;;;12.48;;
78893;SDS011;68282;42.698;23.350;2023-06-26T06:15:27;16.67;;;11.70;;
78893;SDS011;68282;42.698;23.350;2023-06-26T06:17:53;18.38;;;11.55;;
78893;SDS011;68282;42.698;23.350;2023-06-26T06:20:18;18.95;;;11.90;;
78893;SDS011;68282;42.698;23.350;2023-06-26T06:22:45;18.45;;;12.02;;
78893;SDS011;68282;42.698;23.350;2023-06-26T06:25:10;16.17;;;11.07;;
78893;SDS011;68282;42.698;23.350;2023-06-26T06:27:36;18.27;;;11.18;;
78893;SDS011;68282;42.698;23.350;2023-06-26T06:30:01;16.02;;;11.18;;
78893;SDS011;68282;42.698;23.350;2023-06-26T06:32:27;14.73;;;11.30;;
78893;SDS011;68282;42.698;23.350;2023-06-26T06:34:52;18.63;;;11.10;;
78893;SDS011;68282;42.698;23.350;2023-06-26T06:37:18;16.10;;;10.85;;
78893;SDS011;68282;42.698;23.350;2023-06-26T06:39:43;17.85;;;11.27;;
78893;SDS011;68282;42.698;23.350;2023-06-26T06:42:09;17.88;;;11.63;;
78893;SDS011;68282;42.698;23.350;2023-06-26T06:44:34;16.60;;;11.35;;
78893;SDS011;68282;42.698;23.350;2023-06-26T06:46:59;14.85;;;10.18;;
78893;SDS011;68282;42.698;23.350;2023-06-26T06:49:25;12.10;;;9.85;;
78893;SDS011;68282;42.698;23.350;2023-06-26T06:51:50;13.95;;;10.02;;
78893;SDS011;68282;42.698;23.350;2023-06-26T06:54:16;12.18;;;9.00;;
78893;SDS011;68282;42.698;23.350;2023-06-26T06:56:42;12.05;;;9.52;;
78893;SDS011;68282;42.698;23.350;2023-06-26T06:59:07;14.48;;;8.57;;
78893;SDS011;68282;42.698;23.350;2023-06-26T07:01:33;13.07;;;9.80;;
78893;SDS011;68282;42.698;23.350;2023-06-26T07:03:58;16.05;;;9.45;;
78893;SDS011;68282;42.698;23.350;2023-06-26T07:06:24;13.10;;;9.55;;
78893;SDS011;68282;42.698;23.350;2023-06-26T07:08:49;12.32;;;8.38;;
78893;SDS011;68282;42.698;23.350;2023-06-26T07:11:15;13.40;;;8.18;;
78893;SDS011;68282;42.698;23.350;2023-06-26T07:13:41;15.75;;;9.70;;
78893;SDS011;68282;42.698;23.350;2023-06-26T07:16:06;12.52;;;8.98;;
78893;SDS011;68282;42.698;23.350;2023-06-26T07:18:32;12.23;;;8.55;;
78893;SDS011;68282;42.698;23.350;2023-06-26T07:20:57;12.50;;;8.63;;
78893;SDS011;68282;42.698;23.350;2023-06-26T07:23:23;9.80;;;7.70;;
78893;SDS011;68282;42.698;23.350;2023-06-26T07:25:48;10.55;;;7.97;;
78893;SDS011;68282;42.698;23.350;2023-06-26T07:28:14;9.48;;;7.38;;
78893;SDS011;68282;42.698;23.350;2023-06-26T07:30:39;10.80;;;7.88;;
78893;SDS011;68282;42.698;23.350;2023-06-26T07:33:04;11.55;;;7.30;;
78893;SDS011;68282;42.698;23.350;2023-06-26T07:35:30;11.02;;;7.95;;
78893;SDS011;68282;42.698;23.350;2023-06-26T07:37:55;12.82;;;7.65;;
78893;SDS011;68282;42.698;23.350;2023-06-26T07:40:21;9.85;;;6.30;;
78893;SDS011;68282;42.698;23.350;2023-06-26T07:42:46;10.45;;;6.82;;
78893;SDS011;68282;42.698;23.350;2023-06-26T07:45:12;9.88;;;6.63;;
78893;SDS011;68282;42.698;23.350;2023-06-26T07:47:38;12.55;;;6.53;;
78893;SDS011;68282;42.698;23.350;2023-06-26T07:50:04;10.00;;;6.97;;
78893;SDS011;68282;42.698;23.350;2023-06-26T07:52:30;9.07;;;6.28;;
78893;SDS011;68282;42.698;23.350;2023-06-26T07:54:55;9.75;;;6.43;;
78893;SDS011;68282;42.698;23.350;2023-06-26T07:57:21;10.02;;;6.38;;
78893;SDS011;68282;42.698;23.350;2023-06-26T07:59:47;12.68;;;9.20;;
78893;SDS011;68282;42.698;23.350;2023-06-26T08:02:12;18.52;;;13.32;;
78893;SDS011;68282;42.698;23.350;2023-06-26T08:04:38;26.05;;;20.90;;
78893;SDS011;68282;42.698;23.350;2023-06-26T08:07:03;18.00;;;12.52;;
78893;SDS011;68282;42.698;23.350;2023-06-26T08:09:29;11.90;;;6.57;;
78893;SDS011;68282;42.698;23.350;2023-06-26T08:11:55;9.30;;;6.30;;
78893;SDS011;68282;42.698;23.350;2023-06-26T08:14:21;11.35;;;6.15;;
78893;SDS011;68282;42.698;23.350;2023-06-26T08:16:47;11.07;;;6.78;;
78893;SDS011;68282;42.698;23.350;2023-06-26T08:19:13;11.82;;;7.00;;
78893;SDS011;68282;42.698;23.350;2023-06-26T08:21:40;8.75;;;6.60;;
78893;SDS011;68282;42.698;23.350;2023-06-26T08:24:06;12.60;;;7.10;;
78893;SDS011;68282;42.698;23.350;2023-06-26T08:26:31;11.07;;;7.85;;
78893;SDS011;68282;42.698;23.350;2023-06-26T08:28:57;10.93;;;7.30;;
78893;SDS011;68282;42.698;23.350;2023-06-26T08:31:22;10.18;;;6.60;;
78893;SDS011;68282;42.698;23.350;2023-06-26T08:33:48;9.00;;;6.43;;
78893;SDS011;68282;42.698;23.350;2023-06-26T08:36:13;7.50;;;5.57;;
78893;SDS011;68282;42.698;23.350;2023-06-26T08:38:39;8.50;;;6.00;;
78893;SDS011;68282;42.698;23.350;2023-06-26T08:41:05;10.45;;;6.72;;
78893;SDS011;68282;42.698;23.350;2023-06-26T08:43:34;7.25;;;5.20;;
78893;SDS011;68282;42.698;23.350;2023-06-26T08:46:00;7.80;;;5.85;;
78893;SDS011;68282;42.698;23.350;2023-06-26T08:48:26;9.25;;;5.75;;
78893;SDS011;68282;42.698;23.350;2023-06-26T08:50:54;6.60;;;4.68;;
78893;SDS011;68282;42.698;23.350;2023-06-26T08:53:29;9.25;;;6.55;;
78893;SDS011;68282;42.698;23.350;2023-06-26T08:56:02;9.93;;;5.82;;
78893;SDS011;68282;42.698;23.350;2023-06-26T08:58:29;9.07;;;5.85;;
78893;SDS011;68282;42.698;23.350;2023-06-26T09:00:55;10.63;;;6.03;;
78893;SDS011;68282;42.698;23.350;2023-06-26T09:03:21;9.55;;;6.80;;
78893;SDS011;68282;42.698;23.350;2023-06-26T09:05:47;9.95;;;7.15;;
78893;SDS011;68282;42.698;23.350;2023-06-26T09:08:13;8.20;;;5.90;;
78893;SDS011;68282;42.698;23.350;2023-06-26T09:10:39;7.97;;;5.43;;
78893;SDS011;68282;42.698;23.350;2023-06-26T09:13:05;13.05;;;5.72;;
78893;SDS011;68282;42.698;23.350;2023-06-26T09:15:37;7.60;;;5.65;;
78893;SDS011;68282;42.698;23.350;2023-06-26T09:18:04;7.80;;;5.72;;
78893;SDS011;68282;42.698;23.350;2023-06-26T09:20:30;7.35;;;5.28;;
78893;SDS011;68282;42.698;23.350;2023-06-26T09:22:58;8.10;;;5.72;;
78893;SDS011;68282;42.698;23.350;2023-06-26T09:25:24;6.97;;;5.18;;
78893;SDS011;68282;42.698;23.350;2023-06-26T09:27:49;8.13;;;5.68;;
78893;SDS011;68282;42.698;23.350;2023-06-26T09:30:18;8.93;;;5.72;;
78893;SDS011;68282;42.698;23.350;2023-06-26T09:32:44;9.27;;;6.40;;
78893;SDS011;68282;42.698;23.350;2023-06-26T09:35:10;9.05;;;5.95;;
78893;SDS011;68282;42.698;23.350;2023-06-26T09:37:36;6.78;;;5.25;;
78893;SDS011;68282;42.698;23.350;2023-06-26T09:40:01;6.82;;;5.10;;
78893;SDS011;68282;42.698;23.350;2023-06-26T09:42:28;9.07;;;5.38;;
78893;SDS011;68282;42.698;23.350;2023-06-26T09:44:54;6.78;;;5.05;;
78893;SDS011;68282;42.698;23.350;2023-06-26T09:47:20;8.68;;;5.15;;
78893;SDS011;68282;42.698;23.350;2023-06-26T09:49:46;7.03;;;4.70;;
78893;SDS011;68282;42.698;23.350;2023-06-26T09:52:15;11.07;;;5.35;;
78893;SDS011;68282;42.698;23.350;2023-06-26T09:54:45;8.35;;;5.68;;
78893;SDS011;68282;42.698;23.350;2023-06-26T09:57:11;7.68;;;5.03;;
78893;SDS011;68282;42.698;23.350;2023-06-26T09:59:38;6.68;;;4.47;;
78893;SDS011;68282;42.698;23.350;2023-06-26T10:02:05;7.20;;;3.63;;
78893;SDS011;68282;42.698;23.350;2023-06-26T10:04:30;9.40;;;4.88;;
78893;SDS011;68282;42.698;23.350;2023-06-26T10:06:56;6.82;;;5.20;;
78893;SDS011;68282;42.698;23.350;2023-06-26T10:09:23;11.27;;;5.68;;
78893;SDS011;68282;42.698;23.350;2023-06-26T10:12:25;8.48;;;6.38;;
78893;SDS011;68282;42.698;23.350;2023-06-26T10:14:55;7.75;;;5.57;;
78893;SDS011;68282;42.698;23.350;2023-06-26T10:17:21;7.85;;;5.30;;
78893;SDS011;68282;42.698;23.350;2023-06-26T10:19:49;8.48;;;5.53;;
78893;SDS011;68282;42.698;23.350;2023-06-26T10:22:17;9.07;;;5.60;;
78893;SDS011;68282;42.698;23.350;2023-06-26T10:24:45;7.93;;;5.70;;
78893;SDS011;68282;42.698;23.350;2023-06-26T10:27:19;10.93;;;6.28;;
78893;SDS011;68282;42.698;23.350;2023-06-26T10:29:46;7.82;;;5.45;;
78893;SDS011;68282;42.698;23.350;2023-06-26T10:32:24;8.55;;;6.45;;
78893;SDS011;68282;42.698;23.350;2023-06-26T10:34:51;8.70;;;5.15;;
78893;SDS011;68282;42.698;23.350;2023-06-26T10:37:17;7.22;;;5.30;;
78893;SDS011;68282;42.698;23.350;2023-06-26T10:39:50;6.82;;;5.07;;
78893;SDS011;68282;42.698;23.350;2023-06-26T10:42:17;7.88;;;5.22;;
78893;SDS011;68282;42.698;23.350;2023-06-26T10:44:44;7.00;;;5.40;;
78893;SDS011;68282;42.698;23.350;2023-06-26T10:47:11;9.43;;;5.55;;
78893;SDS011;68282;42.698;23.350;2023-06-26T10:49:37;11.68;;;6.03;;
78893;SDS011;68282;42.698;23.350;2023-06-26T10:52:07;12.40;;;6.15;;
78893;SDS011;68282;42.698;23.350;2023-06-26T10:54:33;8.27;;;5.32;;
78893;SDS011;68282;42.698;23.350;2023-06-26T10:56:58;8.25;;;5.20;;
78893;SDS011;68282;42.698;23.350;2023-06-26T10:59:25;7.82;;;5.28;;
78893;SDS011;68282;42.698;23.350;2023-06-26T11:01:58;9.30;;;5.97;;
78893;SDS011;68282;42.698;23.350;2023-06-26T11:07:27;8.70;;;5.15;;
78893;SDS011;68282;42.698;23.350;2023-06-26T11:10:01;11.50;;;4.72;;
78893;SDS011;68282;42.698;23.350;2023-06-26T11:12:36;7.68;;;5.20;;
78893;SDS011;68282;42.698;23.350;2023-06-26T11:15:25;8.13;;;5.40;;
78893;SDS011;68282;42.698;23.350;2023-06-26T11:17:49;7.78;;;4.90;;
78893;SDS011;68282;42.698;23.350;2023-06-26T11:20:15;11.82;;;5.70;;
78893;SDS011;68282;42.698;23.350;2023-06-26T11:22:42;8.23;;;5.38;;
78893;SDS011;68282;42.698;23.350;2023-06-26T11:25:09;9.63;;;5.53;;
78893;SDS011;68282;42.698;23.350;2023-06-26T11:30:07;7.10;;;5.00;;
78893;SDS011;68282;42.698;23.350;2023-06-26T11:32:38;7.03;;;5.07;;
78893;SDS011;68282;42.698;23.350;2023-06-26T11:37:30;8.30;;;5.47;;
78893;SDS011;68282;42.698;23.350;2023-06-26T11:39:57;7.30;;;5.50;;
78893;SDS011;68282;42.698;23.350;2023-06-26T11:42:23;7.25;;;5.57;;
78893;SDS011;68282;42.698;23.350;2023-06-26T11:44:49;7.80;;;5.80;;
78893;SDS011;68282;42.698;23.350;2023-06-26T11:47:16;8.57;;;5.20;;
78893;SDS011;68282;42.698;23.350;2023-06-26T11:49:45;8.50;;;5.20;;
78893;SDS011;68282;42.698;23.350;2023-06-26T11:52:13;7.57;;;4.97;;
78893;SDS011;68282;42.698;23.350;2023-06-26T11:54:40;8.82;;;5.22;;
78893;SDS011;68282;42.698;23.350;2023-06-26T11:57:06;9.73;;;5.30;;
78893;SDS011;68282;42.698;23.350;2023-06-26T11:59:35;7.60;;;4.75;;
78893;SDS011;68282;42.698;23.350;2023-06-26T12:02:08;7.72;;;5.30;;
78893;SDS011;68282;42.698;23.350;2023-06-26T12:04:38;7.85;;;5.68;;
78893;SDS011;68282;42.698;23.350;2023-06-26T12:07:05;8.55;;;5.43;;
78893;SDS011;68282;42.698;23.350;2023-06-26T12:09:33;10.48;;;5.68;;
78893;SDS011;68282;42.698;23.350;2023-06-26T12:11:59;7.63;;;4.53;;
78893;SDS011;68282;42.698;23.350;2023-06-26T12:14:25;7.88;;;6.22;;
78893;SDS011;68282;42.698;23.350;2023-06-26T12:16:53;8.50;;;5.32;;
78893;SDS011;68282;42.698;23.350;2023-06-26T12:19:24;7.43;;;5.18;;
78893;SDS011;68282;42.698;23.350;2023-06-26T12:21:51;9.32;;;5.50;;
78893;SDS011;68282;42.698;23.350;2023-06-26T12:24:20;9.02;;;5.07;;
78893;SDS011;68282;42.698;23.350;2023-06-26T12:26:50;7.85;;;5.28;;
78893;SDS011;68282;42.698;23.350;2023-06-26T12:29:20;9.10;;;4.43;;
78893;SDS011;68282;42.698;23.350;2023-06-26T12:31:51;8.02;;;5.38;;
78893;SDS011;68282;42.698;23.350;2023-06-26T12:34:27;8.30;;;5.32;;
78893;SDS011;68282;42.698;23.350;2023-06-26T12:37:03;8.60;;;4.90;;
78893;SDS011;68282;42.698;23.350;2023-06-26T12:39:30;11.15;;;5.18;;
78893;SDS011;68282;42.698;23.350;2023-06-26T12:42:13;8.10;;;5.40;;
78893;SDS011;68282;42.698;23.350;2023-06-26T12:44:39;7.05;;;5.15;;
78893;SDS011;68282;42.698;23.350;2023-06-26T12:47:05;10.27;;;5.63;;
78893;SDS011;68282;42.698;23.350;2023-06-26T12:49:35;10.30;;;5.80;;
78893;SDS011;68282;42.698;23.350;2023-06-26T12:52:02;9.50;;;5.47;;
78893;SDS011;68282;42.698;23.350;2023-06-26T12:54:30;8.25;;;5.32;;
78893;SDS011;68282;42.698;23.350;2023-06-26T12:56:57;10.65;;;6.20;;
78893;SDS011;68282;42.698;23.350;2023-06-26T12:59:22;9.95;;;5.38;;
78893;SDS011;68282;42.698;23.350;2023-06-26T13:01:48;11.75;;;5.50;;
78893;SDS011;68282;42.698;23.350;2023-06-26T13:04:14;8.43;;;5.75;;
78893;SDS011;68282;42.698;23.350;2023-06-26T13:06:40;11.18;;;6.13;;
78893;SDS011;68282;42.698;23.350;2023-06-26T13:09:05;9.15;;;5.50;;
78893;SDS011;68282;42.698;23.350;2023-06-26T13:11:31;10.65;;;5.53;;
78893;SDS011;68282;42.698;23.350;2023-06-26T13:13:58;7.40;;;5.57;;
78893;SDS011;68282;42.698;23.350;2023-06-26T13:16:24;8.40;;;5.13;;
78893;SDS011;68282;42.698;23.350;2023-06-26T13:18:50;10.05;;;5.38;;
78893;SDS011;68282;42.698;23.350;2023-06-26T13:21:15;12.48;;;8.60;;
78893;SDS011;68282;42.698;23.350;2023-06-26T13:23:42;10.60;;;6.25;;
78893;SDS011;68282;42.698;23.350;2023-06-26T13:26:07;8.68;;;6.15;;
78893;SDS011;68282;42.698;23.350;2023-06-26T13:28:32;8.00;;;5.00;;
78893;SDS011;68282;42.698;23.350;2023-06-26T13:30:58;7.13;;;5.05;;
78893;SDS011;68282;42.698;23.350;2023-06-26T13:33:23;6.88;;;5.10;;
78893;SDS011;68282;42.698;23.350;2023-06-26T13:35:51;7.65;;;4.97;;
78893;SDS011;68282;42.698;23.350;2023-06-26T13:38:18;6.63;;;4.82;;
78893;SDS011;68282;42.698;23.350;2023-06-26T13:40:45;7.10;;;5.15;;
78893;SDS011;68282;42.698;23.350;2023-06-26T13:43:10;6.70;;;5.13;;
78893;SDS011;68282;42.698;23.350;2023-06-26T13:45:36;6.70;;;5.13;;
78893;SDS011;68282;42.698;23.350;2023-06-26T13:48:02;7.80;;;6.18;;
78893;SDS011;68282;42.698;23.350;2023-06-26T13:50:28;7.43;;;5.70;;
78893;SDS011;68282;42.698;23.350;2023-06-26T13:52:54;6.93;;;5.10;;
78893;SDS011;68282;42.698;23.350;2023-06-26T13:55:20;8.00;;;5.35;;
78893;SDS011;68282;42.698;23.350;2023-06-26T13:57:47;7.88;;;5.10;;
78893;SDS011;68282;42.698;23.350;2023-06-26T14:00:14;7.78;;;4.82;;
78893;SDS011;68282;42.698;23.350;2023-06-26T14:02:44;7.90;;;5.18;;
78893;SDS011;68282;42.698;23.350;2023-06-26T14:05:10;8.68;;;5.13;;
78893;SDS011;68282;42.698;23.350;2023-06-26T14:07:35;7.53;;;5.00;;
78893;SDS011;68282;42.698;23.350;2023-06-26T14:10:02;6.93;;;5.07;;
78893;SDS011;68282;42.698;23.350;2023-06-26T14:12:28;5.80;;;5.20;;
78893;SDS011;68282;42.698;23.350;2023-06-26T14:14:54;7.05;;;5.00;;
78893;SDS011;68282;42.698;23.350;2023-06-26T14:17:19;7.95;;;4.93;;
78893;SDS011;68282;42.698;23.350;2023-06-26T14:19:44;6.68;;;4.60;;
78893;SDS011;68282;42.698;23.350;2023-06-26T14:22:11;8.52;;;5.00;;
78893;SDS011;68282;42.698;23.350;2023-06-26T14:24:36;9.07;;;5.43;;
78893;SDS011;68282;42.698;23.350;2023-06-26T14:27:02;8.93;;;5.68;;
78893;SDS011;68282;42.698;23.350;2023-06-26T14:29:27;8.52;;;6.20;;
78893;SDS011;68282;42.698;23.350;2023-06-26T14:31:54;10.60;;;6.43;;
78893;SDS011;68282;42.698;23.350;2023-06-26T14:34:20;10.30;;;6.30;;